Randolph Center, Vermont
Current Conditions -  °F | °C
As of 7:51 AM on Sunday 23 Nov 2014 (Local Time) from KMPV Reporting Station
Overcast Overcast  
Wind Chill: 40°   Ceiling: 2700
Heat Index: 43°   Visibility: 10mi
Dew Point: 37°   Wind: 5mph
Humidity: 80%   Direction: 250°WSW
Pressure: 30.06"   Gusts: NA
Location:  43.94°N, 72.61°W
Report Text: KMPV 231251Z AUTO 25004KT 10SM FEW020 OVC027 06/03 A3006 RMK AO2 SLP188 T00610028
Loading
Personal Weather Stations






























Interactive Weather Map New forecast layout! Learn more

10-Day Weather Forecast

Advertisements
Track Severe Weather on mobile